LiveATC.Net - Listen to live air traffic control over the Internet!


ICAO: OPKC  IATA: KHI   Airport: Jinnah International Airport
City: Karachi
Country: Pakistan   Continent: Asia
OPKC METAR Weather: OPKC 191455Z 22004KT 7000 SCT030 SCT100 24/18 Q1013 NOSIG
OPKC Flight Activity (FlightAware)

OPKC Gnd/Twr/Radar
Feed Status: UP   Listeners: 1
Listen in your browser - HTML5 player (in browser, HTML5)
Click here to listen with your own player (launches your MP3 player)
OPKC Gnd/Twr/Radar Audio Archives
FacilityFrequency
Karachi Ground121.600
Karachi Radar125.500
Karachi Tower118.300

NOTICE

Unauthorized use prohibited. See LiveATC.net Terms of Service


Find LiveATC Audio Streams


Airport/ARTCC Code

Frequency Search
(e.g., 124.400, 128.75)
Site-wide search
 


Browse LiveATC Feeds
Top 50 LiveATC Feeds
LiveATC Feed Map
Bad Weather Areas

LiveATC FAQ
Offer LiveATC feed
Contact LiveATC.net
Press Inquiries

LiveATC on iPhone
LiveATC on Android

Windows Phone
Windows 8/10

LiveATC Mobile
(Mobile browser)

ATC Audio Archives
Interesting Recordings

LiveATC Forums


Home Page
About LiveATC.net
Make a Donation
Terms of Use
Privacy Policy

Canadian Air Freqs

AIRMETs/SIGMETs

FAA Airport Status
Nat'l Airspace Status
Arrival Demand Charts


Server Software By:
Icecast.org
Liquidsoap